Time;durP1;ratioP1;P1;durP2;ratioP2;P2;SDS_P1;SDS_P2;PMS_P1;PMS_P2;Temp;Humidity;BMP_temperature;BMP_pressure;BME280_temperature;BME280_humidity;BME280_pressure;Samples;Min_cycle;Max_cycle;Signal;HPM_P1;HPM_P2
2021/05/25 00:00:55;;;;;;;0.90;0.25;;;8.70;99.90;;;;;;5063351;28;20385;-83
2021/05/25 00:03:21;;;;;;;0.60;0.25;;;8.70;99.90;;;;;;5048318;28;20378;-83
2021/05/25 00:05:46;;;;;;;2.72;0.25;;;8.70;99.90;;;;;;5068683;28;20032;-83
2021/05/25 00:08:12;;;;;;;1.90;0.30;;;8.60;99.90;;;;;;5060193;28;20030;-83
2021/05/25 00:10:37;;;;;;;2.10;0.30;;;8.70;99.90;;;;;;5060619;28;20074;-83
2021/05/25 00:13:03;;;;;;;0.90;0.25;;;8.70;99.90;;;;;;5069662;28;20099;-83
2021/05/25 00:15:31;;;;;;;0.57;0.10;;;8.70;99.90;;;;;;5076691;28;20545;-83
2021/05/25 00:17:56;;;;;;;1.02;0.10;;;8.70;99.90;;;;;;5064547;28;20481;-81
2021/05/25 00:20:23;;;;;;;1.40;0.20;;;8.60;99.90;;;;;;5054579;28;20078;-83
2021/05/25 00:22:50;;;;;;;0.93;0.20;;;8.60;99.90;;;;;;5056511;28;20040;-83
2021/05/25 00:25:16;;;;;;;0.43;0.20;;;8.50;99.90;;;;;;5056996;28;20033;-83
2021/05/25 00:27:43;;;;;;;1.30;0.30;;;8.50;99.90;;;;;;5051211;28;20099;-84
2021/05/25 00:30:11;;;;;;;1.15;0.30;;;8.50;99.90;;;;;;5034265;28;20107;-83
2021/05/25 00:32:37;;;;;;;1.15;0.15;;;8.40;99.90;;;;;;5036051;28;20105;-83
2021/05/25 00:35:04;;;;;;;2.50;0.22;;;8.40;99.90;;;;;;5047891;28;20061;-83
2021/05/25 00:37:30;;;;;;;1.88;0.35;;;8.40;99.90;;;;;;5076567;28;20020;-83
2021/05/25 00:39:55;;;;;;;0.68;0.20;;;8.40;99.90;;;;;;5076635;28;20044;-83
2021/05/25 00:42:21;;;;;;;0.45;0.20;;;8.30;99.90;;;;;;5060614;28;20024;-83
2021/05/25 00:44:47;;;;;;;0.75;0.20;;;8.30;99.90;;;;;;5055646;28;20025;-83
2021/05/25 00:47:13;;;;;;;3.45;0.85;;;8.30;99.90;;;;;;5057040;28;20021;-83
2021/05/25 00:49:38;;;;;;;1.13;0.25;;;8.30;99.90;;;;;;5056239;28;20024;-83
2021/05/25 00:52:04;;;;;;;0.98;0.40;;;8.30;99.90;;;;;;5055233;28;20029;-83
2021/05/25 00:54:30;;;;;;;0.82;0.30;;;8.30;99.90;;;;;;5059010;28;20029;-83
2021/05/25 00:56:57;;;;;;;0.90;0.30;;;8.20;99.90;;;;;;5056759;28;20072;-83
2021/05/25 00:59:24;;;;;;;2.15;0.28;;;8.30;99.90;;;;;;5055735;28;20139;-83
2021/05/25 01:01:51;;;;;;;2.55;0.30;;;8.20;99.90;;;;;;5053557;28;20047;-83
2021/05/25 01:04:16;;;;;;;2.35;0.55;;;8.20;99.90;;;;;;5057115;28;20035;-83
2021/05/25 01:06:42;;;;;;;1.00;0.32;;;8.10;99.90;;;;;;5056793;28;20016;-84
2021/05/25 01:09:08;;;;;;;3.65;0.50;;;8.10;99.90;;;;;;5052848;28;20025;-83
2021/05/25 01:11:36;;;;;;;1.23;0.40;;;8.20;99.90;;;;;;5036324;28;20053;-83
2021/05/25 01:14:03;;;;;;;0.75;0.30;;;8.10;99.90;;;;;;5041743;28;20025;-83
2021/05/25 01:16:29;;;;;;;2.67;0.40;;;8.10;99.90;;;;;;5065331;28;20511;-83
2021/05/25 01:18:56;;;;;;;1.85;0.30;;;8.10;99.90;;;;;;5052936;28;20030;-85
2021/05/25 01:21:24;;;;;;;0.50;0.20;;;8.10;99.90;;;;;;5076418;28;20088;-83
2021/05/25 01:23:50;;;;;;;1.90;0.30;;;8.10;99.90;;;;;;5077227;28;20088;-83
2021/05/25 01:26:17;;;;;;;2.47;0.30;;;8.10;99.90;;;;;;5077716;28;20089;-83
2021/05/25 01:28:45;;;;;;;1.13;0.40;;;8.00;99.90;;;;;;5058556;28;20022;-83
2021/05/25 01:31:12;;;;;;;0.80;0.30;;;7.90;99.90;;;;;;5035651;28;20041;-84
2021/05/25 01:33:38;;;;;;;2.58;0.30;;;7.90;99.90;;;;;;5035314;28;20162;-83
2021/05/25 01:36:08;;;;;;;2.35;0.30;;;7.80;99.90;;;;;;5051989;28;20025;-83
2021/05/25 01:38:36;;;;;;;0.82;0.35;;;7.90;99.90;;;;;;5051366;28;20026;-83
2021/05/25 01:41:05;;;;;;;2.50;0.38;;;7.90;99.90;;;;;;5036747;28;20099;-83
2021/05/25 01:43:31;;;;;;;0.80;0.40;;;7.90;99.90;;;;;;5036353;28;20414;-83
2021/05/25 01:45:57;;;;;;;1.63;0.30;;;7.80;99.90;;;;;;5035039;28;20604;-82
2021/05/25 01:48:23;;;;;;;0.75;0.20;;;7.80;99.90;;;;;;5033016;28;20033;-83
2021/05/25 01:50:49;;;;;;;2.10;0.13;;;7.80;99.90;;;;;;5034016;28;20090;-84
2021/05/25 01:53:25;;;;;;;1.13;0.20;;;7.80;99.90;;;;;;5034890;28;20412;-82
2021/05/25 01:55:53;;;;;;;1.73;0.50;;;7.80;99.90;;;;;;5044001;28;20025;-82
2021/05/25 01:58:28;;;;;;;1.55;0.22;;;7.70;99.90;;;;;;5054589;28;20024;-83
2021/05/25 02:01:08;;;;;;;1.00;0.30;;;7.70;99.90;;;;;;5054835;28;20026;-83
2021/05/25 02:03:34;;;;;;;0.43;0.20;;;7.70;99.90;;;;;;5053204;28;20044;-83
2021/05/25 02:06:00;;;;;;;0.82;0.20;;;7.80;99.90;;;;;;5035040;28;20108;-84
2021/05/25 02:08:26;;;;;;;0.82;0.22;;;7.80;99.90;;;;;;5034834;28;20045;-83
2021/05/25 02:10:54;;;;;;;1.90;0.23;;;7.80;99.90;;;;;;5055281;28;20017;-82
2021/05/25 02:13:31;;;;;;;2.15;0.30;;;7.80;99.90;;;;;;5039770;28;20504;-83
2021/05/25 02:16:00;;;;;;;1.67;0.50;;;7.70;99.90;;;;;;5038554;28;20114;-83
2021/05/25 02:18:28;;;;;;;1.25;0.13;;;7.80;99.90;;;;;;5038227;28;20033;-82
2021/05/25 02:20:57;;;;;;;0.73;0.20;;;7.80;99.90;;;;;;5037872;28;20051;-82
2021/05/25 02:23:22;;;;;;;2.38;0.47;;;7.70;99.90;;;;;;5045629;28;20034;-82
2021/05/25 02:25:49;;;;;;;3.30;0.50;;;7.80;99.90;;;;;;5077809;28;20096;-82
2021/05/25 02:28:16;;;;;;;2.42;0.30;;;7.70;99.90;;;;;;5078292;28;20024;-82
2021/05/25 02:30:42;;;;;;;0.82;0.28;;;7.80;99.90;;;;;;5043072;28;20029;-82
2021/05/25 02:33:14;;;;;;;1.70;0.35;;;7.80;99.90;;;;;;5037931;28;20083;-83
2021/05/25 02:35:41;;;;;;;1.10;0.30;;;7.90;99.90;;;;;;5037686;28;20060;-83
2021/05/25 02:38:09;;;;;;;1.58;0.30;;;7.80;99.90;;;;;;5053159;28;20371;-82
2021/05/25 02:40:35;;;;;;;1.83;0.30;;;7.80;99.90;;;;;;5047783;28;20025;-81
2021/05/25 02:43:02;;;;;;;2.95;0.30;;;7.70;99.90;;;;;;5034278;28;20026;-80
2021/05/25 02:45:27;;;;;;;2.17;0.40;;;7.60;99.90;;;;;;5036139;28;20041;-81
2021/05/25 02:47:53;;;;;;;0.67;0.17;;;7.50;99.90;;;;;;5033156;28;20021;-80
2021/05/25 02:50:20;;;;;;;1.15;0.80;;;7.60;99.90;;;;;;5055962;28;20024;-81
2021/05/25 02:52:48;;;;;;;1.50;0.23;;;7.50;99.90;;;;;;5055386;28;20021;-80
2021/05/25 02:55:16;;;;;;;2.87;0.37;;;7.50;99.90;;;;;;5054282;28;20032;-80
2021/05/25 02:57:43;;;;;;;2.93;0.40;;;7.50;99.90;;;;;;5051610;28;20525;-82
2021/05/25 03:00:16;;;;;;;0.60;0.20;;;7.40;99.90;;;;;;5055850;28;20055;-80
2021/05/25 03:02:42;;;;;;;2.73;0.50;;;7.50;99.90;;;;;;5055483;28;20028;-80
2021/05/25 03:05:10;;;;;;;1.30;0.43;;;7.60;99.90;;;;;;5053662;28;20025;-82
2021/05/25 03:07:37;;;;;;;1.20;0.30;;;7.50;99.90;;;;;;5053325;28;20025;-80
2021/05/25 03:10:08;;;;;;;1.40;0.20;;;7.60;99.90;;;;;;5035605;28;20666;-82
2021/05/25 03:12:34;;;;;;;1.33;0.30;;;7.60;99.90;;;;;;5033624;28;20087;-80
2021/05/25 03:15:00;;;;;;;0.57;0.27;;;7.60;99.90;;;;;;5037476;28;20090;-80
2021/05/25 03:17:26;;;;;;;3.70;0.33;;;7.60;99.90;;;;;;5072635;28;20030;-82
2021/05/25 03:19:51;;;;;;;1.70;0.33;;;7.60;99.90;;;;;;5057724;28;20119;-80
2021/05/25 03:22:17;;;;;;;1.80;0.20;;;7.60;99.90;;;;;;5074799;28;20052;-82
2021/05/25 03:24:42;;;;;;;1.43;0.40;;;7.60;99.90;;;;;;5051123;28;20052;-81
2021/05/25 03:27:08;;;;;;;3.17;0.20;;;7.60;99.90;;;;;;5037023;28;20029;-81
2021/05/25 03:29:34;;;;;;;3.33;0.40;;;7.60;99.90;;;;;;5037403;28;20120;-80
2021/05/25 03:32:00;;;;;;;1.87;0.13;;;7.50;99.90;;;;;;5054980;28;20494;-81
2021/05/25 03:34:25;;;;;;;1.03;0.20;;;7.50;99.90;;;;;;5036574;28;20042;-83
2021/05/25 03:36:51;;;;;;;2.03;0.70;;;7.40;99.90;;;;;;5036450;28;20060;-83
2021/05/25 03:39:17;;;;;;;0.93;0.30;;;7.40;99.90;;;;;;5054451;28;20078;-80
2021/05/25 03:41:43;;;;;;;1.27;0.20;;;7.30;99.90;;;;;;5054443;28;20057;-81
2021/05/25 03:44:13;;;;;;;1.13;0.20;;;7.30;99.90;;;;;;5036094;28;20025;-83
2021/05/25 03:46:40;;;;;;;1.20;0.20;;;7.20;99.90;;;;;;5037141;28;20367;-80
2021/05/25 03:49:06;;;;;;;0.33;0.17;;;7.20;99.90;;;;;;5054408;28;20029;-83
2021/05/25 03:51:32;;;;;;;0.87;0.30;;;7.20;99.90;;;;;;5053531;28;20469;-80
2021/05/25 03:53:58;;;;;;;0.60;0.20;;;7.20;99.90;;;;;;5035864;28;20504;-82
2021/05/25 03:56:32;;;;;;;1.80;0.53;;;7.20;99.90;;;;;;5036445;28;20029;-80
2021/05/25 03:58:58;;;;;;;0.43;0.13;;;7.10;99.90;;;;;;5054574;28;20125;-82
2021/05/25 04:01:25;;;;;;;1.10;0.20;;;7.10;99.90;;;;;;5054247;28;20048;-82
2021/05/25 04:03:56;;;;;;;1.67;0.37;;;7.10;99.90;;;;;;5036219;28;20063;-81
2021/05/25 04:06:22;;;;;;;1.70;0.30;;;7.10;99.90;;;;;;5053792;28;20025;-83
2021/05/25 04:08:49;;;;;;;0.93;0.30;;;7.10;99.90;;;;;;5047086;28;20085;-83
2021/05/25 04:11:16;;;;;;;0.17;0.10;;;7.20;99.90;;;;;;5053807;28;20104;-81
2021/05/25 04:13:43;;;;;;;1.30;0.53;;;7.10;99.90;;;;;;5053865;28;20133;-83
2021/05/25 04:16:11;;;;;;;3.43;0.23;;;7.10;99.90;;;;;;5053861;28;20017;-83
2021/05/25 04:18:37;;;;;;;2.60;0.23;;;7.10;99.90;;;;;;5053630;28;20056;-81
2021/05/25 04:21:03;;;;;;;0.70;0.17;;;7.10;99.90;;;;;;5053496;28;20485;-81
2021/05/25 04:23:29;;;;;;;1.33;0.30;;;7.10;99.90;;;;;;5035339;28;20032;-83
2021/05/25 04:25:54;;;;;;;1.00;0.40;;;7.20;99.90;;;;;;5040212;28;20078;-81
2021/05/25 04:28:20;;;;;;;1.20;0.30;;;7.40;99.90;;;;;;5033505;28;20041;-81
2021/05/25 04:30:46;;;;;;;1.17;0.30;;;7.30;99.90;;;;;;5033257;28;20123;-79
2021/05/25 04:33:12;;;;;;;1.50;0.20;;;7.40;99.90;;;;;;5032276;28;20033;-82
2021/05/25 04:35:39;;;;;;;1.07;0.20;;;7.50;99.90;;;;;;5031076;28;20057;-81
2021/05/25 04:38:05;;;;;;;0.60;0.10;;;7.50;99.90;;;;;;5032933;28;20522;-82
2021/05/25 04:40:33;;;;;;;1.93;0.33;;;7.60;99.90;;;;;;5032795;28;20053;-82
2021/05/25 04:42:59;;;;;;;0.20;0.10;;;7.60;99.90;;;;;;5031948;28;20129;-81
2021/05/25 04:45:25;;;;;;;0.13;0.07;;;7.70;99.90;;;;;;5032899;28;20545;-80
2021/05/25 04:47:50;;;;;;;0.27;0.03;;;7.80;99.90;;;;;;5033520;28;20029;-81
2021/05/25 04:50:18;;;;;;;0.83;0.33;;;7.80;99.90;;;;;;5031891;28;20065;-79
2021/05/25 04:52:46;;;;;;;0.50;0.10;;;7.80;99.90;;;;;;5033158;28;20379;-79
2021/05/25 04:55:14;;;;;;;0.10;0.07;;;7.80;99.90;;;;;;5031457;28;20091;-81
2021/05/25 04:57:41;;;;;;;1.13;0.40;;;7.90;99.90;;;;;;5033081;28;20068;-80
2021/05/25 05:00:09;;;;;;;0.20;0.07;;;7.90;99.90;;;;;;5045953;28;20381;-83
2021/05/25 05:02:35;;;;;;;0.17;0.10;;;7.90;99.90;;;;;;5053156;28;20025;-81
2021/05/25 05:05:00;;;;;;;0.20;0.10;;;7.90;99.90;;;;;;5052930;28;20051;-81
2021/05/25 05:07:26;;;;;;;1.20;0.15;;;7.90;99.90;;;;;;5050838;28;20072;-81
2021/05/25 05:09:52;;;;;;;0.40;0.10;;;8.00;99.90;;;;;;5040745;28;20033;-81
2021/05/25 05:12:17;;;;;;;0.30;0.10;;;8.00;99.90;;;;;;5060360;28;20056;-80
2021/05/25 05:14:43;;;;;;;0.93;0.10;;;8.10;99.90;;;;;;5065569;28;20036;-79
2021/05/25 05:17:09;;;;;;;1.23;0.17;;;8.00;99.90;;;;;;5069496;28;20036;-80
2021/05/25 05:19:34;;;;;;;0.63;0.10;;;8.10;99.90;;;;;;5034144;28;20086;-80
2021/05/25 05:22:00;;;;;;;0.83;0.20;;;8.10;99.90;;;;;;5051939;28;20051;-82
2021/05/25 05:24:26;;;;;;;0.40;0.13;;;8.10;99.90;;;;;;5034148;28;20071;-79
2021/05/25 05:26:51;;;;;;;1.27;0.10;;;8.10;99.90;;;;;;5033960;28;20082;-82
2021/05/25 05:29:17;;;;;;;1.08;0.30;;;8.20;99.90;;;;;;5034114;28;20454;-81
2021/05/25 05:31:44;;;;;;;0.40;0.10;;;8.30;99.90;;;;;;5052107;28;20032;-81
2021/05/25 05:34:10;;;;;;;3.15;0.22;;;8.20;99.90;;;;;;5051794;28;20641;-80
2021/05/25 05:36:35;;;;;;;2.00;0.40;;;8.30;99.90;;;;;;5034048;28;20033;-79
2021/05/25 05:39:02;;;;;;;1.58;0.20;;;8.30;99.90;;;;;;5050751;28;20035;-81
2021/05/25 05:41:28;;;;;;;0.47;0.10;;;8.60;99.90;;;;;;5062257;28;20028;-79
2021/05/25 05:43:54;;;;;;;0.70;0.13;;;8.60;99.90;;;;;;5054231;28;20044;-81
2021/05/25 05:46:19;;;;;;;1.70;0.20;;;8.70;99.90;;;;;;5066320;28;20077;-81
2021/05/25 05:48:45;;;;;;;0.75;0.17;;;8.80;99.90;;;;;;5070019;28;20056;-81
2021/05/25 05:51:11;;;;;;;0.60;0.15;;;9.00;99.90;;;;;;5069279;28;20104;-82
2021/05/25 05:53:37;;;;;;;0.68;0.15;;;9.10;99.90;;;;;;5074273;28;20036;-83
2021/05/25 05:56:03;;;;;;;0.10;0.10;;;9.30;99.90;;;;;;5064669;28;20437;-80
2021/05/25 05:58:28;;;;;;;1.88;0.10;;;9.40;99.90;;;;;;5052334;28;20029;-83
2021/05/25 06:00:54;;;;;;;2.20;0.40;;;9.40;99.90;;;;;;5068263;28;20047;-79
2021/05/25 06:03:20;;;;;;;3.25;0.20;;;9.30;99.90;;;;;;5074988;28;20054;-81
2021/05/25 06:05:46;;;;;;;0.50;0.17;;;9.40;99.90;;;;;;5075823;28;20032;-81
2021/05/25 06:08:13;;;;;;;0.40;0.15;;;9.40;99.90;;;;;;5058731;28;20021;-80
2021/05/25 06:10:40;;;;;;;1.33;0.20;;;9.40;99.90;;;;;;5052633;28;20029;-84
2021/05/25 06:13:05;;;;;;;1.00;0.10;;;9.40;99.90;;;;;;5055949;28;20013;-83
2021/05/25 06:15:36;;;;;;;0.63;0.10;;;9.40;99.90;;;;;;5054636;28;20382;-86
2021/05/25 06:18:02;;;;;;;1.83;0.15;;;9.40;99.90;;;;;;5056873;28;20108;-84
2021/05/25 06:20:28;;;;;;;1.95;0.20;;;9.50;99.90;;;;;;5065904;28;20025;-83
2021/05/25 06:22:54;;;;;;;0.20;0.10;;;9.60;99.90;;;;;;5061555;28;20052;-86
2021/05/25 06:25:21;;;;;;;0.28;0.10;;;9.40;99.90;;;;;;5061705;28;20160;-86
2021/05/25 06:27:47;;;;;;;0.13;0.10;;;9.40;99.90;;;;;;5038044;28;20033;-83
2021/05/25 06:30:13;;;;;;;0.75;0.20;;;9.50;99.90;;;;;;5056228;28;20087;-84
2021/05/25 06:32:39;;;;;;;0.65;0.10;;;9.40;99.90;;;;;;5071883;28;20024;-84
2021/05/25 06:35:05;;;;;;;0.30;0.10;;;9.40;99.90;;;;;;5064649;28;20365;-84
2021/05/25 06:37:31;;;;;;;0.17;0.10;;;9.40;99.90;;;;;;5063768;28;20025;-83
2021/05/25 06:39:57;;;;;;;2.38;0.43;;;9.30;99.90;;;;;;5055005;28;20439;-82
2021/05/25 06:42:23;;;;;;;0.32;0.17;;;9.50;99.90;;;;;;5065842;28;20112;-85
2021/05/25 06:44:49;;;;;;;0.30;0.10;;;9.70;99.90;;;;;;5062666;28;20056;-83
2021/05/25 06:47:14;;;;;;;0.43;0.10;;;9.80;99.90;;;;;;5054331;28;20175;-83
2021/05/25 06:49:40;;;;;;;0.17;0.10;;;10.10;99.90;;;;;;5065455;28;20031;-85
2021/05/25 06:52:07;;;;;;;1.33;0.20;;;10.20;99.90;;;;;;5034544;28;20021;-86
2021/05/25 06:54:33;;;;;;;0.75;0.10;;;10.20;99.90;;;;;;5038929;28;20021;-82
2021/05/25 06:56:59;;;;;;;0.85;0.10;;;10.40;99.90;;;;;;5069636;28;20024;-85
2021/05/25 06:59:27;;;;;;;0.68;0.17;;;10.40;99.90;;;;;;5052833;28;20069;-85
2021/05/25 07:01:53;;;;;;;1.20;0.20;;;10.40;99.90;;;;;;5073734;28;20446;-86
2021/05/25 07:04:21;;;;;;;1.25;0.25;;;10.40;99.90;;;;;;5045857;28;20175;-86
2021/05/25 07:06:47;;;;;;;1.50;0.30;;;10.50;99.90;;;;;;5073808;28;20514;-84
2021/05/25 07:09:13;;;;;;;1.70;0.20;;;10.30;99.90;;;;;;5048906;28;20115;-88
2021/05/25 07:11:38;;;;;;;1.92;0.22;;;10.20;99.90;;;;;;5051801;28;20358;-86
2021/05/25 07:14:05;;;;;;;3.70;0.20;;;10.30;99.90;;;;;;5064292;28;20032;-85
2021/05/25 07:16:30;;;;;;;2.42;0.20;;;10.30;99.90;;;;;;5059391;28;20025;-84
2021/05/25 07:18:58;;;;;;;0.90;0.25;;;10.30;99.90;;;;;;5056630;28;20028;-85
2021/05/25 07:21:24;;;;;;;1.27;0.10;;;10.50;99.90;;;;;;5055838;28;20032;-85
2021/05/25 07:23:50;;;;;;;2.17;0.17;;;10.60;99.90;;;;;;5058301;28;20033;-82
2021/05/25 07:26:16;;;;;;;0.60;0.13;;;10.80;99.90;;;;;;5056395;28;20056;-85
2021/05/25 07:28:41;;;;;;;0.85;0.10;;;11.10;99.90;;;;;;5057014;28;20029;-85
2021/05/25 07:31:08;;;;;;;0.93;0.20;;;11.20;99.90;;;;;;5061657;28;20538;-86
2021/05/25 07:33:37;;;;;;;0.65;0.10;;;11.00;99.90;;;;;;5057011;28;20213;-83
2021/05/25 07:36:04;;;;;;;1.17;0.20;;;11.10;99.90;;;;;;5058524;28;20021;-86
2021/05/25 07:38:30;;;;;;;1.88;0.30;;;11.30;99.90;;;;;;5066020;28;20020;-88
2021/05/25 07:40:56;;;;;;;1.20;0.10;;;11.20;99.90;;;;;;5089048;28;20076;-83
2021/05/25 07:43:24;;;;;;;0.70;0.22;;;11.30;99.90;;;;;;5060354;28;20059;-84
2021/05/25 07:45:50;;;;;;;1.20;0.20;;;11.10;99.90;;;;;;5052450;28;20071;-83
2021/05/25 07:48:16;;;;;;;1.17;0.20;;;11.60;99.90;;;;;;5053237;28;20029;-84
2021/05/25 07:50:42;;;;;;;2.28;0.20;;;11.10;99.90;;;;;;5054342;28;20433;-84
2021/05/25 07:53:08;;;;;;;0.75;0.20;;;11.30;99.90;;;;;;5054624;28;20029;-84
2021/05/25 07:55:34;;;;;;;2.75;0.30;;;11.30;99.90;;;;;;5053049;28;20083;-84
2021/05/25 07:58:01;;;;;;;0.88;0.13;;;11.30;99.90;;;;;;5055857;28;20496;-84
2021/05/25 08:00:29;;;;;;;1.25;0.20;;;11.20;99.90;;;;;;5069241;28;20119;-83
2021/05/25 08:02:56;;;;;;;2.08;0.22;;;11.30;99.90;;;;;;5049758;28;20021;-83
2021/05/25 08:05:31;;;;;;;0.60;0.15;;;11.90;99.90;;;;;;5072080;28;20021;-85
2021/05/25 08:07:57;;;;;;;2.22;0.20;;;11.70;99.90;;;;;;5061245;28;20077;-83
2021/05/25 08:10:23;;;;;;;0.52;0.20;;;12.10;99.90;;;;;;5054979;28;20549;-84
2021/05/25 08:12:50;;;;;;;1.50;0.20;;;12.10;98.60;;;;;;5055023;28;20165;-83
2021/05/25 08:15:18;;;;;;;4.18;0.17;;;12.10;98.40;;;;;;5055752;28;20228;-83
2021/05/25 08:20:26;;;;;;;2.03;0.35;;;11.80;98.10;;;;;;5073926;28;20017;-83
2021/05/25 08:22:57;;;;;;;0.85;0.20;;;12.10;98.50;;;;;;5069138;28;20035;-84
2021/05/25 08:25:27;;;;;;;2.40;0.25;;;11.70;97.50;;;;;;5051678;28;20846;-84
2021/05/25 08:28:02;;;;;;;2.05;0.22;;;11.90;98.20;;;;;;5032470;28;20434;-86
2021/05/25 08:30:33;;;;;;;1.08;0.30;;;11.90;96.60;;;;;;5050382;28;20033;-86
2021/05/25 08:32:59;;;;;;;3.10;0.10;;;12.00;96.40;;;;;;5046734;28;20028;-85
2021/05/25 08:35:34;;;;;;;1.23;0.20;;;12.10;96.10;;;;;;5061212;28;20020;-86
2021/05/25 08:38:00;;;;;;;1.42;0.35;;;12.00;95.70;;;;;;5059124;28;20083;-84
2021/05/25 08:40:32;;;;;;;0.85;0.10;;;12.10;96.60;;;;;;5056574;28;20033;-82
2021/05/25 08:42:58;;;;;;;;;;;12.20;95.60;;;;;;5056508;28;20525;-85
2021/05/25 08:45:25;;;;;;;0.10;0.10;;;12.10;95.80;;;;;;5059580;28;19908;-83
2021/05/25 08:47:52;;;;;;;0.82;0.13;;;12.10;95.90;;;;;;5056554;28;20513;-81
2021/05/25 08:50:21;;;;;;;0.52;0.17;;;12.30;95.90;;;;;;5050932;28;20099;-87
2021/05/25 08:52:49;;;;;;;2.70;0.30;;;12.50;95.30;;;;;;5037485;28;20052;-86
2021/05/25 08:55:15;;;;;;;0.73;0.10;;;12.40;94.70;;;;;;5059033;28;20069;-86
2021/05/25 08:57:41;;;;;;;1.10;0.10;;;12.50;95.60;;;;;;5059296;28;20025;-86
2021/05/25 09:00:09;;;;;;;0.47;0.17;;;12.80;95.40;;;;;;5056117;28;20032;-84
2021/05/25 09:02:35;;;;;;;0.68;0.20;;;13.00;93.80;;;;;;5057361;28;20033;-85
2021/05/25 09:05:09;;;;;;;1.50;0.10;;;13.10;92.90;;;;;;5047736;28;20106;-85
2021/05/25 09:07:43;;;;;;;0.60;0.20;;;12.90;93.20;;;;;;5057796;28;20057;-85
2021/05/25 09:10:16;;;;;;;1.73;0.10;;;12.50;93.80;;;;;;5061032;28;20021;-88
2021/05/25 09:12:45;;;;;;;1.70;0.20;;;12.40;93.90;;;;;;5049190;28;20032;-87
2021/05/25 09:15:13;;;;;;;0.52;0.10;;;12.10;93.90;;;;;;5056739;28;20160;-86
2021/05/25 09:17:40;;;;;;;0.30;0.10;;;12.00;94.20;;;;;;5055692;28;20501;-87
2021/05/25 09:20:09;;;;;;;1.20;0.30;;;12.20;94.30;;;;;;5053082;28;20118;-86
2021/05/25 09:22:40;;;;;;;0.60;0.10;;;12.20;94.90;;;;;;5048967;28;20029;-85
2021/05/25 09:25:23;;;;;;;0.65;0.20;;;12.50;93.50;;;;;;5057283;28;20031;-86
2021/05/25 09:28:07;;;;;;;1.48;0.20;;;12.70;94.20;;;;;;5075805;28;20029;-87
2021/05/25 09:30:33;;;;;;;2.08;0.20;;;13.10;94.00;;;;;;5055505;28;20022;-88
2021/05/25 09:33:04;;;;;;;2.35;0.28;;;13.30;93.30;;;;;;5038725;28;20056;-86
2021/05/25 09:35:33;;;;;;;1.05;0.15;;;12.90;92.40;;;;;;5071008;28;20021;-87
2021/05/25 09:38:11;;;;;;;0.45;0.10;;;12.90;93.00;;;;;;5073212;28;20389;-87
2021/05/25 09:40:58;;;;;;;1.58;0.20;;;12.70;92.90;;;;;;5057068;28;20052;-85
2021/05/25 09:43:29;;;;;;;1.33;0.28;;;13.00;92.70;;;;;;5052704;28;20047;-88
2021/05/25 09:46:13;;;;;;;1.90;0.20;;;12.90;93.70;;;;;;5056547;28;20021;-87
2021/05/25 09:48:53;;;;;;;0.65;0.20;;;12.80;92.50;;;;;;5063206;28;20036;-87
2021/05/25 09:51:39;;;;;;;1.55;0.28;;;12.70;92.90;;;;;;5057125;28;20029;-87
2021/05/25 09:54:22;;;;;;;1.25;0.20;;;12.70;93.20;;;;;;5055366;28;20037;-85
2021/05/25 09:57:00;;;;;;;1.95;0.30;;;12.50;92.80;;;;;;5073360;28;20035;-85
2021/05/25 09:59:31;;;;;;;2.65;0.22;;;12.60;93.00;;;;;;5073354;28;20040;-87
2021/05/25 10:02:20;;;;;;;0.80;0.10;;;12.60;93.90;;;;;;5073502;28;20032;-85
2021/05/25 10:05:08;;;;;;;2.72;0.40;;;12.60;93.80;;;;;;5072412;28;20032;-86
2021/05/25 10:07:35;;;;;;;3.15;0.40;;;12.50;92.90;;;;;;5074632;28;20566;-86
2021/05/25 10:10:03;;;;;;;3.35;0.30;;;12.30;92.60;;;;;;5054993;28;20024;-84
2021/05/25 10:12:33;;;;;;;1.27;0.30;;;12.20;92.60;;;;;;5055509;28;20028;-84
2021/05/25 10:15:00;;;;;;;0.65;0.20;;;12.40;92.80;;;;;;5052222;28;20074;-83
2021/05/25 10:20:04;;;;;;;0.52;0.20;;;12.70;92.40;;;;;;5072845;28;20017;-86
2021/05/25 10:22:39;;;;;;;4.18;0.45;;;12.60;92.40;;;;;;5056883;28;20092;-87
2021/05/25 10:25:11;;;;;;;2.00;0.20;;;12.40;92.90;;;;;;5058487;28;20035;-86
2021/05/25 10:27:39;;;;;;;2.28;0.30;;;12.80;93.00;;;;;;5078152;28;20025;-86
2021/05/25 10:30:25;;;;;;;2.58;0.63;;;13.40;93.30;;;;;;5063340;28;20021;-85
2021/05/25 10:33:06;;;;;;;2.17;0.20;;;14.30;90.40;;;;;;5038258;28;20033;-85
2021/05/25 10:35:51;;;;;;;3.05;0.20;;;14.40;88.80;;;;;;5042647;28;20025;-86
2021/05/25 10:38:33;;;;;;;2.30;0.57;;;14.30;87.70;;;;;;5059726;28;20028;-86
2021/05/25 10:41:04;;;;;;;1.73;0.30;;;13.80;86.10;;;;;;5057849;28;20024;-86
2021/05/25 10:43:35;;;;;;;2.80;0.30;;;13.60;86.40;;;;;;5045410;28;20033;-86
2021/05/25 10:46:10;;;;;;;0.47;0.10;;;13.50;86.80;;;;;;5072555;28;20078;-86
2021/05/25 10:49:01;;;;;;;3.10;0.45;;;13.40;87.40;;;;;;5062487;28;20028;-85
2021/05/25 10:51:45;;;;;;;1.25;0.20;;;13.10;88.30;;;;;;5038777;28;20052;-86
2021/05/25 10:54:43;;;;;;;1.35;0.20;;;12.90;90.10;;;;;;5060182;28;20021;-87
2021/05/25 10:57:28;;;;;;;2.33;0.50;;;12.90;90.40;;;;;;5057955;28;20037;-87
2021/05/25 11:00:01;;;;;;;0.93;0.20;;;12.70;91.50;;;;;;5058814;28;20043;-85
2021/05/25 11:02:59;;;;;;;1.67;0.35;;;12.50;91.30;;;;;;5066661;28;20087;-85
2021/05/25 11:05:34;;;;;;;2.53;0.40;;;12.60;91.90;;;;;;5043088;28;20063;-86
2021/05/25 11:08:10;;;;;;;2.75;0.38;;;12.60;91.70;;;;;;5056709;28;20068;-86
2021/05/25 11:10:45;;;;;;;2.97;0.30;;;12.60;92.10;;;;;;5056307;28;20041;-86
2021/05/25 11:13:27;;;;;;;1.58;0.20;;;12.50;92.20;;;;;;5054856;28;20040;-86
2021/05/25 11:16:07;;;;;;;0.98;0.20;;;12.50;92.00;;;;;;5054977;28;20238;-86
2021/05/25 11:18:42;;;;;;;1.35;0.17;;;12.20;93.40;;;;;;5055184;28;20440;-88
2021/05/25 11:23:50;;;;;;;0.63;0.20;;;12.00;95.70;;;;;;5054234;28;20028;-86
2021/05/25 11:27:01;;;;;;;0.73;0.20;;;12.00;95.20;;;;;;5064595;28;20020;-90
2021/05/25 11:29:36;;;;;;;1.33;0.40;;;11.70;99.90;;;;;;5059535;28;20029;-86
2021/05/25 11:32:05;;;;;;;1.42;0.30;;;11.10;99.90;;;;;;5056200;28;20028;-85
2021/05/25 11:34:38;;;;;;;1.77;0.30;;;11.50;99.90;;;;;;5055082;28;20033;-85
2021/05/25 11:37:05;;;;;;;1.08;0.10;;;11.80;99.90;;;;;;5054337;28;20036;-87
2021/05/25 11:39:35;;;;;;;1.10;0.10;;;12.00;99.90;;;;;;5045120;28;20090;-85
2021/05/25 11:42:06;;;;;;;1.10;0.20;;;12.10;99.90;;;;;;5046957;28;20039;-85
2021/05/25 11:44:44;;;;;;;0.68;0.20;;;12.40;99.90;;;;;;5071454;28;20055;-85
2021/05/25 11:47:11;;;;;;;1.98;0.30;;;12.50;99.90;;;;;;5055783;28;20055;-85
2021/05/25 11:49:40;;;;;;;1.02;0.20;;;12.80;99.90;;;;;;5045257;28;20630;-87
2021/05/25 11:52:18;;;;;;;1.90;0.30;;;13.40;99.90;;;;;;5030571;28;20097;-86
2021/05/25 11:54:45;;;;;;;1.40;0.20;;;13.10;99.90;;;;;;5060871;28;20120;-84
2021/05/25 11:57:37;;;;;;;0.90;0.25;;;12.90;99.90;;;;;;5055540;28;20024;-84
2021/05/25 12:00:27;;;;;;;2.05;0.20;;;12.90;99.90;;;;;;5055680;28;20478;-87
2021/05/25 12:02:55;;;;;;;2.38;0.15;;;13.30;99.90;;;;;;5035281;28;20033;-86
2021/05/25 12:05:26;;;;;;;1.52;0.20;;;13.70;99.90;;;;;;5056082;28;20147;-84
2021/05/25 12:07:58;;;;;;;1.40;0.30;;;14.20;99.20;;;;;;5053716;28;20029;-86
2021/05/25 12:10:33;;;;;;;1.45;0.30;;;14.40;99.90;;;;;;5053664;28;20021;-86
2021/05/25 12:13:12;;;;;;;2.38;0.20;;;14.50;97.80;;;;;;5054551;28;20049;-86
2021/05/25 12:15:48;;;;;;;1.90;0.22;;;14.70;96.40;;;;;;5073972;28;20056;-84
2021/05/25 12:18:20;;;;;;;1.25;0.30;;;15.00;96.20;;;;;;5059585;28;20371;-85
2021/05/25 12:20:52;;;;;;;0.73;0.20;;;15.20;96.80;;;;;;5058734;28;20413;-86
2021/05/25 12:23:28;;;;;;;2.50;0.22;;;15.20;92.60;;;;;;5039539;28;20511;-85
2021/05/25 12:25:55;;;;;;;0.73;0.10;;;15.70;94.00;;;;;;5054947;28;20621;-85
2021/05/25 12:28:33;;;;;;;2.38;0.20;;;15.20;89.80;;;;;;5052333;28;20060;-87
2021/05/25 12:31:01;;;;;;;2.95;0.20;;;15.00;88.50;;;;;;5054264;28;20021;-86
2021/05/25 12:33:35;;;;;;;1.50;0.30;;;14.70;90.40;;;;;;5073859;28;20052;-83
2021/05/25 12:36:29;;;;;;;0.95;0.20;;;14.50;88.90;;;;;;5064904;28;20025;-84
2021/05/25 12:38:57;;;;;;;1.40;0.20;;;14.60;90.10;;;;;;5051965;28;20033;-85
2021/05/25 12:41:23;;;;;;;0.93;0.10;;;14.50;88.10;;;;;;5056718;28;20429;-84
2021/05/25 12:43:49;;;;;;;0.85;0.10;;;13.80;85.80;;;;;;5072916;28;20020;-85
2021/05/25 12:46:15;;;;;;;2.50;0.20;;;13.80;88.40;;;;;;5052627;28;20508;-86
2021/05/25 12:48:46;;;;;;;0.52;0.10;;;13.70;87.60;;;;;;5050592;28;20051;-83
2021/05/25 12:51:12;;;;;;;0.52;0.15;;;13.50;89.40;;;;;;5049064;28;20036;-86
2021/05/25 12:53:49;;;;;;;1.88;0.20;;;13.70;90.70;;;;;;5063455;28;20035;-83
2021/05/25 12:56:23;;;;;;;1.58;0.10;;;13.90;90.10;;;;;;5057144;28;20017;-83
2021/05/25 12:58:51;;;;;;;1.17;0.20;;;14.60;91.20;;;;;;5056072;28;20481;-83
2021/05/25 13:01:32;;;;;;;1.13;0.30;;;15.30;88.80;;;;;;5059974;28;20029;-83
2021/05/25 13:04:01;;;;;;;2.83;0.28;;;15.60;84.70;;;;;;5076309;28;20025;-85
2021/05/25 13:09:14;;;;;;;0.75;0.20;;;16.20;77.50;;;;;;5075782;28;20020;-86
2021/05/25 13:12:01;;;;;;;0.85;0.20;;;16.70;75.20;;;;;;5064562;28;20025;-83
2021/05/25 13:14:28;;;;;;;2.35;0.30;;;16.80;73.40;;;;;;5047293;28;20039;-85